sensor_id;sensor_type;location;lat;lon;timestamp;P1;durP1;ratioP1;P2;durP2;ratioP2
49572;SDS011;35476;52.466;13.364;2022-10-16T00:01:30;5.30;;;3.20;;
49572;SDS011;35476;52.466;13.364;2022-10-16T00:03:55;3.25;;;2.83;;
49572;SDS011;35476;52.466;13.364;2022-10-16T00:06:21;3.40;;;3.10;;
49572;SDS011;35476;52.466;13.364;2022-10-16T00:08:47;5.55;;;2.58;;
49572;SDS011;35476;52.466;13.364;2022-10-16T00:11:14;7.22;;;3.05;;
49572;SDS011;35476;52.466;13.364;2022-10-16T00:13:40;3.22;;;2.67;;
49572;SDS011;35476;52.466;13.364;2022-10-16T00:16:05;4.00;;;2.75;;
49572;SDS011;35476;52.466;13.364;2022-10-16T00:18:31;3.25;;;2.58;;
49572;SDS011;35476;52.466;13.364;2022-10-16T00:21:01;3.38;;;2.20;;
49572;SDS011;35476;52.466;13.364;2022-10-16T00:23:26;3.65;;;2.65;;
49572;SDS011;35476;52.466;13.364;2022-10-16T00:25:55;2.57;;;2.13;;
49572;SDS011;35476;52.466;13.364;2022-10-16T00:28:20;3.00;;;2.40;;
49572;SDS011;35476;52.466;13.364;2022-10-16T00:30:46;3.60;;;2.23;;
49572;SDS011;35476;52.466;13.364;2022-10-16T00:33:11;2.93;;;2.40;;
49572;SDS011;35476;52.466;13.364;2022-10-16T00:35:36;5.23;;;2.33;;
49572;SDS011;35476;52.466;13.364;2022-10-16T00:38:01;8.27;;;2.60;;
49572;SDS011;35476;52.466;13.364;2022-10-16T00:40:26;2.78;;;2.47;;
49572;SDS011;35476;52.466;13.364;2022-10-16T00:42:53;2.75;;;2.30;;
49572;SDS011;35476;52.466;13.364;2022-10-16T00:45:18;2.90;;;2.10;;
49572;SDS011;35476;52.466;13.364;2022-10-16T00:47:43;6.87;;;2.47;;
49572;SDS011;35476;52.466;13.364;2022-10-16T00:55:19;2.40;;;2.03;;
49572;SDS011;35476;52.466;13.364;2022-10-16T00:57:45;5.35;;;2.05;;
49572;SDS011;35476;52.466;13.364;2022-10-16T01:00:12;4.40;;;2.33;;
49572;SDS011;35476;52.466;13.364;2022-10-16T01:02:38;3.42;;;2.30;;
49572;SDS011;35476;52.466;13.364;2022-10-16T01:05:03;3.03;;;2.33;;
49572;SDS011;35476;52.466;13.364;2022-10-16T01:10:09;4.50;;;2.40;;
49572;SDS011;35476;52.466;13.364;2022-10-16T01:12:41;3.05;;;2.42;;
49572;SDS011;35476;52.466;13.364;2022-10-16T01:17:37;4.83;;;2.00;;
49572;SDS011;35476;52.466;13.364;2022-10-16T01:20:07;3.28;;;1.98;;
49572;SDS011;35476;52.466;13.364;2022-10-16T01:22:48;4.50;;;2.30;;
49572;SDS011;35476;52.466;13.364;2022-10-16T01:25:20;4.22;;;2.80;;
49572;SDS011;35476;52.466;13.364;2022-10-16T01:27:48;3.75;;;2.45;;
49572;SDS011;35476;52.466;13.364;2022-10-16T01:30:21;6.72;;;2.58;;
49572;SDS011;35476;52.466;13.364;2022-10-16T01:35:21;3.83;;;2.60;;
49572;SDS011;35476;52.466;13.364;2022-10-16T01:37:53;3.25;;;2.33;;
49572;SDS011;35476;52.466;13.364;2022-10-16T01:40:19;4.05;;;2.40;;
49572;SDS011;35476;52.466;13.364;2022-10-16T01:42:50;2.88;;;2.42;;
49572;SDS011;35476;52.466;13.364;2022-10-16T01:45:17;3.75;;;2.40;;
49572;SDS011;35476;52.466;13.364;2022-10-16T01:47:44;2.88;;;2.28;;
49572;SDS011;35476;52.466;13.364;2022-10-16T01:50:09;2.78;;;2.45;;
49572;SDS011;35476;52.466;13.364;2022-10-16T01:52:36;3.70;;;2.33;;
49572;SDS011;35476;52.466;13.364;2022-10-16T01:55:02;4.55;;;2.83;;
49572;SDS011;35476;52.466;13.364;2022-10-16T01:57:28;3.40;;;2.45;;
49572;SDS011;35476;52.466;13.364;2022-10-16T01:59:55;6.72;;;3.10;;
49572;SDS011;35476;52.466;13.364;2022-10-16T02:02:21;3.75;;;2.17;;
49572;SDS011;35476;52.466;13.364;2022-10-16T02:05:10;2.13;;;1.92;;
49572;SDS011;35476;52.466;13.364;2022-10-16T02:07:33;4.53;;;2.40;;
49572;SDS011;35476;52.466;13.364;2022-10-16T02:09:59;5.93;;;2.37;;
49572;SDS011;35476;52.466;13.364;2022-10-16T02:12:28;3.40;;;2.90;;
49572;SDS011;35476;52.466;13.364;2022-10-16T02:14:55;4.78;;;3.33;;
49572;SDS011;35476;52.466;13.364;2022-10-16T02:17:21;15.05;;;3.17;;
49572;SDS011;35476;52.466;13.364;2022-10-16T02:19:48;4.20;;;3.47;;
49572;SDS011;35476;52.466;13.364;2022-10-16T02:22:26;3.58;;;2.85;;
49572;SDS011;35476;52.466;13.364;2022-10-16T02:24:54;3.85;;;2.20;;
49572;SDS011;35476;52.466;13.364;2022-10-16T02:27:28;2.90;;;2.28;;
49572;SDS011;35476;52.466;13.364;2022-10-16T02:29:58;3.35;;;2.13;;
49572;SDS011;35476;52.466;13.364;2022-10-16T02:32:27;3.78;;;1.90;;
49572;SDS011;35476;52.466;13.364;2022-10-16T02:34:55;3.28;;;2.40;;
49572;SDS011;35476;52.466;13.364;2022-10-16T02:37:21;3.92;;;2.35;;
49572;SDS011;35476;52.466;13.364;2022-10-16T02:39:46;3.80;;;2.70;;
49572;SDS011;35476;52.466;13.364;2022-10-16T02:42:12;5.30;;;2.70;;
49572;SDS011;35476;52.466;13.364;2022-10-16T02:44:37;4.00;;;2.28;;
49572;SDS011;35476;52.466;13.364;2022-10-16T02:47:03;6.57;;;2.47;;
49572;SDS011;35476;52.466;13.364;2022-10-16T02:49:28;3.77;;;2.50;;
49572;SDS011;35476;52.466;13.364;2022-10-16T02:51:53;3.70;;;3.03;;
49572;SDS011;35476;52.466;13.364;2022-10-16T02:54:18;3.45;;;2.88;;
49572;SDS011;35476;52.466;13.364;2022-10-16T02:56:44;6.88;;;2.40;;
49572;SDS011;35476;52.466;13.364;2022-10-16T02:59:09;3.70;;;2.40;;
49572;SDS011;35476;52.466;13.364;2022-10-16T03:01:34;3.00;;;2.13;;
49572;SDS011;35476;52.466;13.364;2022-10-16T03:03:59;8.23;;;3.07;;
49572;SDS011;35476;52.466;13.364;2022-10-16T03:06:24;2.70;;;2.50;;
49572;SDS011;35476;52.466;13.364;2022-10-16T03:08:49;2.90;;;2.33;;
49572;SDS011;35476;52.466;13.364;2022-10-16T03:11:15;5.30;;;2.45;;
49572;SDS011;35476;52.466;13.364;2022-10-16T03:13:40;4.93;;;2.90;;
49572;SDS011;35476;52.466;13.364;2022-10-16T03:16:05;4.50;;;2.30;;
49572;SDS011;35476;52.466;13.364;2022-10-16T03:18:30;4.27;;;2.73;;
49572;SDS011;35476;52.466;13.364;2022-10-16T03:20:56;3.13;;;2.57;;
49572;SDS011;35476;52.466;13.364;2022-10-16T03:23:21;4.93;;;3.60;;
49572;SDS011;35476;52.466;13.364;2022-10-16T03:25:46;3.50;;;2.93;;
49572;SDS011;35476;52.466;13.364;2022-10-16T03:28:11;3.13;;;2.83;;
49572;SDS011;35476;52.466;13.364;2022-10-16T03:30:36;3.80;;;2.87;;
49572;SDS011;35476;52.466;13.364;2022-10-16T03:33:02;4.90;;;3.00;;
49572;SDS011;35476;52.466;13.364;2022-10-16T03:35:27;5.00;;;2.77;;
49572;SDS011;35476;52.466;13.364;2022-10-16T03:37:52;6.28;;;3.10;;
49572;SDS011;35476;52.466;13.364;2022-10-16T03:40:17;4.97;;;3.10;;
49572;SDS011;35476;52.466;13.364;2022-10-16T03:42:43;4.17;;;2.77;;
49572;SDS011;35476;52.466;13.364;2022-10-16T03:45:08;5.00;;;3.00;;
49572;SDS011;35476;52.466;13.364;2022-10-16T03:47:34;7.65;;;3.13;;
49572;SDS011;35476;52.466;13.364;2022-10-16T03:49:59;3.93;;;3.07;;
49572;SDS011;35476;52.466;13.364;2022-10-16T03:52:24;3.15;;;2.80;;
49572;SDS011;35476;52.466;13.364;2022-10-16T03:54:50;3.85;;;2.88;;
49572;SDS011;35476;52.466;13.364;2022-10-16T03:57:15;5.40;;;3.70;;
49572;SDS011;35476;52.466;13.364;2022-10-16T03:59:40;3.57;;;3.07;;
49572;SDS011;35476;52.466;13.364;2022-10-16T04:02:05;3.47;;;2.80;;
49572;SDS011;35476;52.466;13.364;2022-10-16T04:04:30;4.07;;;2.93;;
49572;SDS011;35476;52.466;13.364;2022-10-16T04:06:55;4.40;;;2.80;;
49572;SDS011;35476;52.466;13.364;2022-10-16T04:09:21;8.97;;;3.13;;
49572;SDS011;35476;52.466;13.364;2022-10-16T04:11:46;5.03;;;2.80;;
49572;SDS011;35476;52.466;13.364;2022-10-16T04:14:11;3.67;;;3.20;;
49572;SDS011;35476;52.466;13.364;2022-10-16T04:16:36;3.47;;;2.67;;
49572;SDS011;35476;52.466;13.364;2022-10-16T04:19:02;4.80;;;3.13;;
49572;SDS011;35476;52.466;13.364;2022-10-16T04:21:27;3.88;;;3.22;;
49572;SDS011;35476;52.466;13.364;2022-10-16T04:23:52;3.20;;;2.90;;
49572;SDS011;35476;52.466;13.364;2022-10-16T04:26:17;5.23;;;2.90;;
49572;SDS011;35476;52.466;13.364;2022-10-16T04:28:43;7.57;;;3.38;;
49572;SDS011;35476;52.466;13.364;2022-10-16T04:31:08;6.43;;;2.83;;
49572;SDS011;35476;52.466;13.364;2022-10-16T04:33:33;5.80;;;3.38;;
49572;SDS011;35476;52.466;13.364;2022-10-16T04:35:59;3.47;;;3.10;;
49572;SDS011;35476;52.466;13.364;2022-10-16T04:38:24;3.47;;;3.08;;
49572;SDS011;35476;52.466;13.364;2022-10-16T04:40:50;3.58;;;3.13;;
49572;SDS011;35476;52.466;13.364;2022-10-16T04:43:15;4.00;;;3.05;;
49572;SDS011;35476;52.466;13.364;2022-10-16T04:45:40;3.65;;;2.83;;
49572;SDS011;35476;52.466;13.364;2022-10-16T04:48:05;3.80;;;3.40;;
49572;SDS011;35476;52.466;13.364;2022-10-16T04:50:31;4.43;;;3.10;;
49572;SDS011;35476;52.466;13.364;2022-10-16T04:52:56;3.30;;;2.47;;
49572;SDS011;35476;52.466;13.364;2022-10-16T04:55:21;5.30;;;2.90;;
49572;SDS011;35476;52.466;13.364;2022-10-16T04:57:46;4.43;;;2.95;;
49572;SDS011;35476;52.466;13.364;2022-10-16T05:00:12;3.33;;;3.00;;
49572;SDS011;35476;52.466;13.364;2022-10-16T05:02:37;5.38;;;2.78;;
49572;SDS011;35476;52.466;13.364;2022-10-16T05:05:02;5.83;;;3.10;;
49572;SDS011;35476;52.466;13.364;2022-10-16T05:07:28;6.05;;;3.42;;
49572;SDS011;35476;52.466;13.364;2022-10-16T05:09:53;4.40;;;3.58;;
49572;SDS011;35476;52.466;13.364;2022-10-16T05:12:18;4.20;;;3.80;;
49572;SDS011;35476;52.466;13.364;2022-10-16T05:14:44;4.00;;;3.70;;
49572;SDS011;35476;52.466;13.364;2022-10-16T05:17:09;4.77;;;4.27;;
49572;SDS011;35476;52.466;13.364;2022-10-16T05:19:34;6.77;;;5.07;;
49572;SDS011;35476;52.466;13.364;2022-10-16T05:21:59;5.30;;;4.80;;
49572;SDS011;35476;52.466;13.364;2022-10-16T05:24:24;7.40;;;4.22;;
49572;SDS011;35476;52.466;13.364;2022-10-16T05:26:50;7.47;;;4.57;;
49572;SDS011;35476;52.466;13.364;2022-10-16T05:29:15;5.25;;;4.75;;
49572;SDS011;35476;52.466;13.364;2022-10-16T05:31:40;5.00;;;4.50;;
49572;SDS011;35476;52.466;13.364;2022-10-16T05:34:06;7.97;;;4.47;;
49572;SDS011;35476;52.466;13.364;2022-10-16T05:36:31;5.90;;;4.33;;
49572;SDS011;35476;52.466;13.364;2022-10-16T05:38:56;4.40;;;4.00;;
49572;SDS011;35476;52.466;13.364;2022-10-16T05:41:21;4.63;;;4.22;;
49572;SDS011;35476;52.466;13.364;2022-10-16T05:43:48;5.72;;;4.45;;
49572;SDS011;35476;52.466;13.364;2022-10-16T05:46:14;7.78;;;4.50;;
49572;SDS011;35476;52.466;13.364;2022-10-16T05:48:39;5.50;;;4.32;;
49572;SDS011;35476;52.466;13.364;2022-10-16T05:51:08;6.78;;;4.47;;
49572;SDS011;35476;52.466;13.364;2022-10-16T05:53:36;4.60;;;4.20;;
49572;SDS011;35476;52.466;13.364;2022-10-16T05:56:01;4.70;;;4.03;;
49572;SDS011;35476;52.466;13.364;2022-10-16T05:58:34;6.43;;;4.03;;
49572;SDS011;35476;52.466;13.364;2022-10-16T06:01:04;4.72;;;4.10;;
49572;SDS011;35476;52.466;13.364;2022-10-16T06:03:30;5.15;;;4.30;;
49572;SDS011;35476;52.466;13.364;2022-10-16T06:05:55;5.60;;;4.53;;
49572;SDS011;35476;52.466;13.364;2022-10-16T06:08:21;6.33;;;4.87;;
49572;SDS011;35476;52.466;13.364;2022-10-16T06:10:47;6.45;;;4.80;;
49572;SDS011;35476;52.466;13.364;2022-10-16T06:13:13;5.30;;;4.78;;
49572;SDS011;35476;52.466;13.364;2022-10-16T06:15:39;5.13;;;4.63;;
49572;SDS011;35476;52.466;13.364;2022-10-16T06:18:06;4.57;;;4.13;;
49572;SDS011;35476;52.466;13.364;2022-10-16T06:20:31;5.65;;;3.60;;
49572;SDS011;35476;52.466;13.364;2022-10-16T06:22:57;5.30;;;3.53;;
49572;SDS011;35476;52.466;13.364;2022-10-16T06:25:22;3.20;;;2.90;;
49572;SDS011;35476;52.466;13.364;2022-10-16T06:27:47;5.67;;;3.00;;
49572;SDS011;35476;52.466;13.364;2022-10-16T06:30:12;3.17;;;2.83;;
49572;SDS011;35476;52.466;13.364;2022-10-16T06:32:37;3.88;;;3.30;;
49572;SDS011;35476;52.466;13.364;2022-10-16T06:35:03;4.20;;;2.73;;
49572;SDS011;35476;52.466;13.364;2022-10-16T06:37:28;3.65;;;2.95;;
49572;SDS011;35476;52.466;13.364;2022-10-16T06:39:53;3.17;;;2.45;;
49572;SDS011;35476;52.466;13.364;2022-10-16T06:42:18;4.20;;;2.50;;
49572;SDS011;35476;52.466;13.364;2022-10-16T06:44:44;5.90;;;2.87;;
49572;SDS011;35476;52.466;13.364;2022-10-16T06:47:09;3.33;;;2.55;;
49572;SDS011;35476;52.466;13.364;2022-10-16T06:49:34;2.57;;;2.37;;
49572;SDS011;35476;52.466;13.364;2022-10-16T06:52:00;2.80;;;2.50;;
49572;SDS011;35476;52.466;13.364;2022-10-16T06:54:26;3.00;;;2.30;;
49572;SDS011;35476;52.466;13.364;2022-10-16T06:56:51;3.40;;;2.40;;
49572;SDS011;35476;52.466;13.364;2022-10-16T06:59:19;2.65;;;2.10;;
49572;SDS011;35476;52.466;13.364;2022-10-16T07:01:44;3.20;;;2.37;;
49572;SDS011;35476;52.466;13.364;2022-10-16T07:04:09;4.83;;;2.73;;
49572;SDS011;35476;52.466;13.364;2022-10-16T07:06:34;7.13;;;2.00;;
49572;SDS011;35476;52.466;13.364;2022-10-16T07:09:00;3.03;;;2.03;;
49572;SDS011;35476;52.466;13.364;2022-10-16T07:11:26;3.63;;;2.25;;
49572;SDS011;35476;52.466;13.364;2022-10-16T07:13:52;4.60;;;1.90;;
49572;SDS011;35476;52.466;13.364;2022-10-16T07:16:18;2.97;;;1.80;;
49572;SDS011;35476;52.466;13.364;2022-10-16T07:18:44;4.10;;;1.75;;
49572;SDS011;35476;52.466;13.364;2022-10-16T07:23:36;2.40;;;1.70;;
49572;SDS011;35476;52.466;13.364;2022-10-16T07:26:02;3.95;;;2.45;;
49572;SDS011;35476;52.466;13.364;2022-10-16T07:28:27;2.58;;;1.73;;
49572;SDS011;35476;52.466;13.364;2022-10-16T07:30:53;3.05;;;1.92;;
49572;SDS011;35476;52.466;13.364;2022-10-16T07:33:18;3.97;;;1.63;;
49572;SDS011;35476;52.466;13.364;2022-10-16T07:35:53;4.47;;;1.80;;
49572;SDS011;35476;52.466;13.364;2022-10-16T07:38:18;2.60;;;1.70;;
49572;SDS011;35476;52.466;13.364;2022-10-16T07:40:44;2.00;;;1.40;;
49572;SDS011;35476;52.466;13.364;2022-10-16T07:43:09;7.10;;;1.73;;
49572;SDS011;35476;52.466;13.364;2022-10-16T07:45:34;3.22;;;1.50;;
49572;SDS011;35476;52.466;13.364;2022-10-16T07:47:59;2.17;;;1.67;;
49572;SDS011;35476;52.466;13.364;2022-10-16T07:50:24;3.83;;;1.80;;
49572;SDS011;35476;52.466;13.364;2022-10-16T07:52:50;8.95;;;1.92;;
49572;SDS011;35476;52.466;13.364;2022-10-16T07:55:15;2.23;;;1.67;;
49572;SDS011;35476;52.466;13.364;2022-10-16T07:57:40;3.50;;;2.00;;
49572;SDS011;35476;52.466;13.364;2022-10-16T08:00:05;2.83;;;1.70;;
49572;SDS011;35476;52.466;13.364;2022-10-16T08:02:31;3.55;;;1.90;;
49572;SDS011;35476;52.466;13.364;2022-10-16T08:04:56;2.53;;;1.80;;
49572;SDS011;35476;52.466;13.364;2022-10-16T08:07:21;2.17;;;1.57;;
49572;SDS011;35476;52.466;13.364;2022-10-16T08:09:48;4.63;;;1.97;;
49572;SDS011;35476;52.466;13.364;2022-10-16T08:12:14;2.72;;;1.80;;
49572;SDS011;35476;52.466;13.364;2022-10-16T08:14:39;3.63;;;1.50;;
49572;SDS011;35476;52.466;13.364;2022-10-16T08:17:04;2.30;;;1.70;;
49572;SDS011;35476;52.466;13.364;2022-10-16T08:19:29;2.08;;;1.83;;
49572;SDS011;35476;52.466;13.364;2022-10-16T08:21:56;3.53;;;1.60;;
49572;SDS011;35476;52.466;13.364;2022-10-16T08:24:21;3.50;;;2.43;;
49572;SDS011;35476;52.466;13.364;2022-10-16T08:26:47;10.13;;;4.30;;
49572;SDS011;35476;52.466;13.364;2022-10-16T08:29:13;1.83;;;1.53;;
49572;SDS011;35476;52.466;13.364;2022-10-16T08:31:38;3.00;;;1.95;;
49572;SDS011;35476;52.466;13.364;2022-10-16T08:34:03;3.87;;;1.47;;
49572;SDS011;35476;52.466;13.364;2022-10-16T08:36:28;2.33;;;1.40;;
49572;SDS011;35476;52.466;13.364;2022-10-16T08:38:53;4.70;;;1.47;;
49572;SDS011;35476;52.466;13.364;2022-10-16T08:41:41;3.25;;;1.40;;
49572;SDS011;35476;52.466;13.364;2022-10-16T08:49:30;3.85;;;1.65;;
49572;SDS011;35476;52.466;13.364;2022-10-16T08:51:56;3.00;;;1.50;;
49572;SDS011;35476;52.466;13.364;2022-10-16T08:56:47;2.10;;;1.30;;
49572;SDS011;35476;52.466;13.364;2022-10-16T08:59:12;1.40;;;1.20;;
49572;SDS011;35476;52.466;13.364;2022-10-16T09:01:40;5.18;;;1.50;;
49572;SDS011;35476;52.466;13.364;2022-10-16T09:06:47;3.53;;;1.58;;
49572;SDS011;35476;52.466;13.364;2022-10-16T09:16:57;2.08;;;1.20;;
49572;SDS011;35476;52.466;13.364;2022-10-16T09:19:41;3.33;;;1.88;;
49572;SDS011;35476;52.466;13.364;2022-10-16T09:22:14;2.25;;;1.35;;
49572;SDS011;35476;52.466;13.364;2022-10-16T09:24:39;3.10;;;1.45;;
49572;SDS011;35476;52.466;13.364;2022-10-16T09:27:06;8.67;;;1.40;;
49572;SDS011;35476;52.466;13.364;2022-10-16T09:29:32;3.38;;;2.17;;
49572;SDS011;35476;52.466;13.364;2022-10-16T09:31:58;2.93;;;1.93;;
49572;SDS011;35476;52.466;13.364;2022-10-16T09:34:35;2.78;;;1.27;;
49572;SDS011;35476;52.466;13.364;2022-10-16T09:37:07;2.38;;;1.23;;
49572;SDS011;35476;52.466;13.364;2022-10-16T09:39:44;1.90;;;1.10;;
49572;SDS011;35476;52.466;13.364;2022-10-16T09:42:10;4.00;;;1.60;;
49572;SDS011;35476;52.466;13.364;2022-10-16T09:44:36;4.15;;;1.40;;
49572;SDS011;35476;52.466;13.364;2022-10-16T09:47:10;2.50;;;1.70;;
49572;SDS011;35476;52.466;13.364;2022-10-16T09:49:37;1.90;;;1.30;;
49572;SDS011;35476;52.466;13.364;2022-10-16T09:52:03;2.60;;;1.23;;
49572;SDS011;35476;52.466;13.364;2022-10-16T09:54:29;1.65;;;1.10;;
49572;SDS011;35476;52.466;13.364;2022-10-16T09:57:03;1.80;;;1.35;;
49572;SDS011;35476;52.466;13.364;2022-10-16T09:59:28;3.47;;;1.30;;
49572;SDS011;35476;52.466;13.364;2022-10-16T10:01:56;5.03;;;1.13;;
49572;SDS011;35476;52.466;13.364;2022-10-16T10:04:24;1.88;;;1.30;;
49572;SDS011;35476;52.466;13.364;2022-10-16T10:06:54;2.53;;;1.38;;
49572;SDS011;35476;52.466;13.364;2022-10-16T10:09:23;1.73;;;1.10;;
49572;SDS011;35476;52.466;13.364;2022-10-16T10:11:54;3.50;;;1.10;;
49572;SDS011;35476;52.466;13.364;2022-10-16T10:14:20;2.72;;;1.17;;
49572;SDS011;35476;52.466;13.364;2022-10-16T10:16:46;2.10;;;1.20;;
49572;SDS011;35476;52.466;13.364;2022-10-16T10:19:22;1.08;;;0.90;;
49572;SDS011;35476;52.466;13.364;2022-10-16T10:21:48;3.50;;;1.40;;
49572;SDS011;35476;52.466;13.364;2022-10-16T10:24:14;2.42;;;1.40;;
49572;SDS011;35476;52.466;13.364;2022-10-16T10:26:51;3.45;;;1.17;;
49572;SDS011;35476;52.466;13.364;2022-10-16T10:29:28;1.80;;;1.00;;
49572;SDS011;35476;52.466;13.364;2022-10-16T10:32:08;4.35;;;1.40;;
49572;SDS011;35476;52.466;13.364;2022-10-16T10:34:48;3.75;;;1.10;;
49572;SDS011;35476;52.466;13.364;2022-10-16T10:40:11;2.08;;;1.50;;
49572;SDS011;35476;52.466;13.364;2022-10-16T10:42:48;1.00;;;0.90;;
49572;SDS011;35476;52.466;13.364;2022-10-16T10:47:47;1.95;;;1.30;;
49572;SDS011;35476;52.466;13.364;2022-10-16T10:53:00;1.73;;;0.90;;
49572;SDS011;35476;52.466;13.364;2022-10-16T10:55:39;1.02;;;0.80;;
49572;SDS011;35476;52.466;13.364;2022-10-16T11:05:46;1.67;;;1.05;;
49572;SDS011;35476;52.466;13.364;2022-10-16T11:13:15;2.67;;;0.98;;
49572;SDS011;35476;52.466;13.364;2022-10-16T11:15:42;2.33;;;1.13;;
49572;SDS011;35476;52.466;13.364;2022-10-16T11:21:07;2.80;;;1.10;;
49572;SDS011;35476;52.466;13.364;2022-10-16T11:23:53;2.63;;;0.90;;
49572;SDS011;35476;52.466;13.364;2022-10-16T11:26:21;1.92;;;1.15;;
49572;SDS011;35476;52.466;13.364;2022-10-16T11:28:49;3.70;;;0.95;;
49572;SDS011;35476;52.466;13.364;2022-10-16T11:31:28;2.38;;;1.23;;
49572;SDS011;35476;52.466;13.364;2022-10-16T11:33:57;2.88;;;0.80;;
49572;SDS011;35476;52.466;13.364;2022-10-16T11:36:29;2.50;;;1.20;;
49572;SDS011;35476;52.466;13.364;2022-10-16T11:41:34;1.15;;;0.90;;
49572;SDS011;35476;52.466;13.364;2022-10-16T11:44:35;2.60;;;1.23;;
49572;SDS011;35476;52.466;13.364;2022-10-16T11:46:52;1.60;;;1.08;;
49572;SDS011;35476;52.466;13.364;2022-10-16T11:49:24;2.45;;;1.00;;
49572;SDS011;35476;52.466;13.364;2022-10-16T11:57:01;3.28;;;1.10;;
49572;SDS011;35476;52.466;13.364;2022-10-16T11:59:36;3.20;;;0.90;;
49572;SDS011;35476;52.466;13.364;2022-10-16T12:07:06;1.13;;;0.90;;
49572;SDS011;35476;52.466;13.364;2022-10-16T12:09:34;2.88;;;0.98;;
49572;SDS011;35476;52.466;13.364;2022-10-16T12:12:01;3.50;;;1.20;;
49572;SDS011;35476;52.466;13.364;2022-10-16T12:16:55;2.15;;;1.20;;
49572;SDS011;35476;52.466;13.364;2022-10-16T12:19:21;1.58;;;1.13;;
49572;SDS011;35476;52.466;13.364;2022-10-16T12:21:55;1.50;;;0.90;;
49572;SDS011;35476;52.466;13.364;2022-10-16T12:24:21;2.95;;;1.40;;
49572;SDS011;35476;52.466;13.364;2022-10-16T12:26:48;4.55;;;0.93;;
49572;SDS011;35476;52.466;13.364;2022-10-16T12:29:23;4.28;;;0.88;;
49572;SDS011;35476;52.466;13.364;2022-10-16T12:31:52;1.58;;;0.80;;
49572;SDS011;35476;52.466;13.364;2022-10-16T12:34:39;2.20;;;0.70;;
49572;SDS011;35476;52.466;13.364;2022-10-16T12:39:37;4.03;;;1.70;;
49572;SDS011;35476;52.466;13.364;2022-10-16T12:42:19;5.80;;;1.45;;
49572;SDS011;35476;52.466;13.364;2022-10-16T12:44:44;1.27;;;0.75;;
49572;SDS011;35476;52.466;13.364;2022-10-16T12:47:19;1.08;;;0.60;;
49572;SDS011;35476;52.466;13.364;2022-10-16T12:49:48;1.13;;;0.75;;
49572;SDS011;35476;52.466;13.364;2022-10-16T12:52:35;2.20;;;0.90;;
49572;SDS011;35476;52.466;13.364;2022-10-16T12:55:00;1.33;;;0.60;;
49572;SDS011;35476;52.466;13.364;2022-10-16T13:00:03;0.85;;;0.60;;
49572;SDS011;35476;52.466;13.364;2022-10-16T13:15:33;1.25;;;0.60;;
49572;SDS011;35476;52.466;13.364;2022-10-16T13:20:51;1.02;;;0.70;;
49572;SDS011;35476;52.466;13.364;2022-10-16T13:23:23;1.65;;;0.90;;
49572;SDS011;35476;52.466;13.364;2022-10-16T13:28:21;2.35;;;0.80;;
49572;SDS011;35476;52.466;13.364;2022-10-16T13:30:53;1.40;;;0.88;;
49572;SDS011;35476;52.466;13.364;2022-10-16T13:35:52;2.13;;;1.00;;
49572;SDS011;35476;52.466;13.364;2022-10-16T13:38:19;2.22;;;1.05;;
49572;SDS011;35476;52.466;13.364;2022-10-16T13:40:48;1.38;;;0.80;;
49572;SDS011;35476;52.466;13.364;2022-10-16T13:43:13;1.33;;;0.80;;
49572;SDS011;35476;52.466;13.364;2022-10-16T13:45:39;1.88;;;0.98;;
49572;SDS011;35476;52.466;13.364;2022-10-16T13:48:05;3.33;;;0.90;;
49572;SDS011;35476;52.466;13.364;2022-10-16T13:50:31;1.40;;;0.82;;
49572;SDS011;35476;52.466;13.364;2022-10-16T13:53:03;2.95;;;1.17;;
49572;SDS011;35476;52.466;13.364;2022-10-16T13:55:28;4.30;;;1.13;;
49572;SDS011;35476;52.466;13.364;2022-10-16T13:57:53;2.17;;;1.00;;
49572;SDS011;35476;52.466;13.364;2022-10-16T14:00:29;4.07;;;1.10;;
49572;SDS011;35476;52.466;13.364;2022-10-16T14:03:13;1.70;;;1.10;;
49572;SDS011;35476;52.466;13.364;2022-10-16T14:05:56;4.75;;;1.20;;
49572;SDS011;35476;52.466;13.364;2022-10-16T14:08:23;1.75;;;1.10;;
49572;SDS011;35476;52.466;13.364;2022-10-16T14:10:50;1.70;;;1.17;;
49572;SDS011;35476;52.466;13.364;2022-10-16T14:13:20;2.65;;;1.00;;
49572;SDS011;35476;52.466;13.364;2022-10-16T14:15:49;4.72;;;1.00;;
49572;SDS011;35476;52.466;13.364;2022-10-16T14:18:17;2.58;;;1.23;;
49572;SDS011;35476;52.466;13.364;2022-10-16T14:20:43;3.58;;;1.20;;
49572;SDS011;35476;52.466;13.364;2022-10-16T14:25:53;3.40;;;1.10;;
49572;SDS011;35476;52.466;13.364;2022-10-16T14:28:21;1.57;;;1.17;;
49572;SDS011;35476;52.466;13.364;2022-10-16T14:30:59;1.23;;;1.08;;
49572;SDS011;35476;52.466;13.364;2022-10-16T14:36:05;5.80;;;1.50;;
49572;SDS011;35476;52.466;13.364;2022-10-16T14:38:31;2.47;;;1.23;;
49572;SDS011;35476;52.466;13.364;2022-10-16T14:40:57;1.92;;;1.17;;
49572;SDS011;35476;52.466;13.364;2022-10-16T14:43:42;4.00;;;1.33;;
49572;SDS011;35476;52.466;13.364;2022-10-16T14:48:32;5.28;;;1.40;;
49572;SDS011;35476;52.466;13.364;2022-10-16T14:50:57;4.03;;;1.40;;
49572;SDS011;35476;52.466;13.364;2022-10-16T14:53:23;2.03;;;1.17;;
49572;SDS011;35476;52.466;13.364;2022-10-16T14:55:48;5.03;;;1.80;;
49572;SDS011;35476;52.466;13.364;2022-10-16T14:58:15;3.50;;;1.55;;
49572;SDS011;35476;52.466;13.364;2022-10-16T15:00:40;4.68;;;1.73;;
49572;SDS011;35476;52.466;13.364;2022-10-16T15:03:06;2.10;;;1.20;;
49572;SDS011;35476;52.466;13.364;2022-10-16T15:05:31;2.50;;;1.37;;
49572;SDS011;35476;52.466;13.364;2022-10-16T15:07:57;1.80;;;1.20;;
49572;SDS011;35476;52.466;13.364;2022-10-16T15:10:22;2.20;;;1.60;;
49572;SDS011;35476;52.466;13.364;2022-10-16T15:12:48;3.78;;;1.65;;
49572;SDS011;35476;52.466;13.364;2022-10-16T15:17:47;1.40;;;1.20;;
49572;SDS011;35476;52.466;13.364;2022-10-16T15:20:13;1.73;;;1.40;;
49572;SDS011;35476;52.466;13.364;2022-10-16T15:22:38;3.80;;;1.47;;
49572;SDS011;35476;52.466;13.364;2022-10-16T15:25:09;2.13;;;1.30;;
49572;SDS011;35476;52.466;13.364;2022-10-16T15:27:35;4.60;;;1.52;;
49572;SDS011;35476;52.466;13.364;2022-10-16T15:30:05;4.55;;;1.52;;
49572;SDS011;35476;52.466;13.364;2022-10-16T15:32:30;1.70;;;1.25;;
49572;SDS011;35476;52.466;13.364;2022-10-16T15:34:55;2.57;;;1.43;;
49572;SDS011;35476;52.466;13.364;2022-10-16T15:37:20;3.30;;;1.60;;
49572;SDS011;35476;52.466;13.364;2022-10-16T15:39:45;6.67;;;1.50;;
49572;SDS011;35476;52.466;13.364;2022-10-16T15:42:11;6.30;;;1.80;;
49572;SDS011;35476;52.466;13.364;2022-10-16T15:44:36;2.47;;;1.48;;
49572;SDS011;35476;52.466;13.364;2022-10-16T15:47:01;3.10;;;1.58;;
49572;SDS011;35476;52.466;13.364;2022-10-16T15:49:27;2.77;;;1.60;;
49572;SDS011;35476;52.466;13.364;2022-10-16T15:51:52;3.43;;;1.60;;
49572;SDS011;35476;52.466;13.364;2022-10-16T15:54:18;3.10;;;1.75;;
49572;SDS011;35476;52.466;13.364;2022-10-16T15:56:46;2.25;;;1.80;;
49572;SDS011;35476;52.466;13.364;2022-10-16T15:59:11;4.27;;;2.80;;
49572;SDS011;35476;52.466;13.364;2022-10-16T16:01:37;2.92;;;1.90;;
49572;SDS011;35476;52.466;13.364;2022-10-16T16:04:02;3.58;;;1.80;;
49572;SDS011;35476;52.466;13.364;2022-10-16T16:06:29;2.83;;;2.08;;
49572;SDS011;35476;52.466;13.364;2022-10-16T16:08:54;3.15;;;1.90;;
49572;SDS011;35476;52.466;13.364;2022-10-16T16:11:19;4.53;;;2.20;;
49572;SDS011;35476;52.466;13.364;2022-10-16T16:13:45;5.78;;;2.63;;
49572;SDS011;35476;52.466;13.364;2022-10-16T16:16:11;2.87;;;1.93;;
49572;SDS011;35476;52.466;13.364;2022-10-16T16:18:37;2.67;;;2.00;;
49572;SDS011;35476;52.466;13.364;2022-10-16T16:21:02;6.30;;;2.42;;
49572;SDS011;35476;52.466;13.364;2022-10-16T16:23:28;3.95;;;2.70;;